sensor_id;sensor_type;location;lat;lon;timestamp;P1;durP1;ratioP1;P2;durP2;ratioP2
35530;SDS011;21637;53.352;-6.356;2023-09-19T00:00:45;28.27;;;3.83;;
35530;SDS011;21637;53.352;-6.356;2023-09-19T00:03:12;21.60;;;3.50;;
35530;SDS011;21637;53.352;-6.356;2023-09-19T00:05:38;16.90;;;3.60;;
35530;SDS011;21637;53.352;-6.356;2023-09-19T00:08:04;26.00;;;3.85;;
35530;SDS011;21637;53.352;-6.356;2023-09-19T00:10:31;18.00;;;3.50;;
35530;SDS011;21637;53.352;-6.356;2023-09-19T00:13:00;17.63;;;3.78;;
35530;SDS011;21637;53.352;-6.356;2023-09-19T00:15:30;17.10;;;3.72;;
35530;SDS011;21637;53.352;-6.356;2023-09-19T00:18:01;16.55;;;3.70;;
35530;SDS011;21637;53.352;-6.356;2023-09-19T00:20:27;16.70;;;3.83;;
35530;SDS011;21637;53.352;-6.356;2023-09-19T00:22:54;21.75;;;3.40;;
35530;SDS011;21637;53.352;-6.356;2023-09-19T00:25:20;21.42;;;3.92;;
35530;SDS011;21637;53.352;-6.356;2023-09-19T00:27:49;19.75;;;3.85;;
35530;SDS011;21637;53.352;-6.356;2023-09-19T00:30:16;11.77;;;2.95;;
35530;SDS011;21637;53.352;-6.356;2023-09-19T00:32:46;11.20;;;2.85;;
35530;SDS011;21637;53.352;-6.356;2023-09-19T00:35:13;15.20;;;2.92;;
35530;SDS011;21637;53.352;-6.356;2023-09-19T00:37:42;16.50;;;3.33;;
35530;SDS011;21637;53.352;-6.356;2023-09-19T00:40:08;18.70;;;3.47;;
35530;SDS011;21637;53.352;-6.356;2023-09-19T00:42:40;16.50;;;3.40;;
35530;SDS011;21637;53.352;-6.356;2023-09-19T00:45:10;15.98;;;3.13;;
35530;SDS011;21637;53.352;-6.356;2023-09-19T00:47:41;12.40;;;3.15;;
35530;SDS011;21637;53.352;-6.356;2023-09-19T00:50:09;15.52;;;3.10;;
35530;SDS011;21637;53.352;-6.356;2023-09-19T00:52:39;18.02;;;3.72;;
35530;SDS011;21637;53.352;-6.356;2023-09-19T00:55:08;18.25;;;3.47;;
35530;SDS011;21637;53.352;-6.356;2023-09-19T00:57:35;23.67;;;3.55;;
35530;SDS011;21637;53.352;-6.356;2023-09-19T01:00:03;15.43;;;3.22;;
35530;SDS011;21637;53.352;-6.356;2023-09-19T01:02:31;19.73;;;3.42;;
35530;SDS011;21637;53.352;-6.356;2023-09-19T01:04:58;25.15;;;4.18;;
35530;SDS011;21637;53.352;-6.356;2023-09-19T01:07:25;16.60;;;4.03;;
35530;SDS011;21637;53.352;-6.356;2023-09-19T01:09:51;13.93;;;2.95;;
35530;SDS011;21637;53.352;-6.356;2023-09-19T01:12:24;14.07;;;3.22;;
35530;SDS011;21637;53.352;-6.356;2023-09-19T01:15:04;14.40;;;3.63;;
35530;SDS011;21637;53.352;-6.356;2023-09-19T01:23:53;16.60;;;3.00;;
35530;SDS011;21637;53.352;-6.356;2023-09-19T01:32:12;10.60;;;2.43;;
35530;SDS011;21637;53.352;-6.356;2023-09-19T01:34:48;8.90;;;2.17;;
35530;SDS011;21637;53.352;-6.356;2023-09-19T01:37:15;7.20;;;1.95;;
35530;SDS011;21637;53.352;-6.356;2023-09-19T01:39:45;10.30;;;2.40;;
35530;SDS011;21637;53.352;-6.356;2023-09-19T01:47:58;8.40;;;2.15;;
35530;SDS011;21637;53.352;-6.356;2023-09-19T01:53:07;11.15;;;2.63;;
35530;SDS011;21637;53.352;-6.356;2023-09-19T01:55:46;5.72;;;1.80;;
35530;SDS011;21637;53.352;-6.356;2023-09-19T01:58:18;9.07;;;2.28;;
35530;SDS011;21637;53.352;-6.356;2023-09-19T02:00:54;10.07;;;2.33;;
35530;SDS011;21637;53.352;-6.356;2023-09-19T02:03:23;8.32;;;2.40;;
35530;SDS011;21637;53.352;-6.356;2023-09-19T02:05:50;9.20;;;2.50;;
35530;SDS011;21637;53.352;-6.356;2023-09-19T02:08:19;9.45;;;2.40;;
35530;SDS011;21637;53.352;-6.356;2023-09-19T02:10:48;7.35;;;2.25;;
35530;SDS011;21637;53.352;-6.356;2023-09-19T02:13:17;10.38;;;2.97;;
35530;SDS011;21637;53.352;-6.356;2023-09-19T02:15:44;8.50;;;2.35;;
35530;SDS011;21637;53.352;-6.356;2023-09-19T02:18:11;7.45;;;2.58;;
35530;SDS011;21637;53.352;-6.356;2023-09-19T02:20:37;11.95;;;2.78;;
35530;SDS011;21637;53.352;-6.356;2023-09-19T02:23:07;10.70;;;2.78;;
35530;SDS011;21637;53.352;-6.356;2023-09-19T02:25:33;13.30;;;2.47;;
35530;SDS011;21637;53.352;-6.356;2023-09-19T02:28:00;11.32;;;2.88;;
35530;SDS011;21637;53.352;-6.356;2023-09-19T02:30:28;12.25;;;2.90;;
35530;SDS011;21637;53.352;-6.356;2023-09-19T02:32:54;8.63;;;2.85;;
35530;SDS011;21637;53.352;-6.356;2023-09-19T02:35:20;16.15;;;3.88;;
35530;SDS011;21637;53.352;-6.356;2023-09-19T02:37:46;12.30;;;3.30;;
35530;SDS011;21637;53.352;-6.356;2023-09-19T02:40:12;11.57;;;3.58;;
35530;SDS011;21637;53.352;-6.356;2023-09-19T02:42:47;9.88;;;3.05;;
35530;SDS011;21637;53.352;-6.356;2023-09-19T02:45:17;14.07;;;3.60;;
35530;SDS011;21637;53.352;-6.356;2023-09-19T02:47:43;10.90;;;3.53;;
35530;SDS011;21637;53.352;-6.356;2023-09-19T02:50:10;12.70;;;3.20;;
35530;SDS011;21637;53.352;-6.356;2023-09-19T02:52:37;18.30;;;4.38;;
35530;SDS011;21637;53.352;-6.356;2023-09-19T02:55:03;9.43;;;3.40;;
35530;SDS011;21637;53.352;-6.356;2023-09-19T02:57:31;14.88;;;3.60;;
35530;SDS011;21637;53.352;-6.356;2023-09-19T02:59:58;10.32;;;3.22;;
35530;SDS011;21637;53.352;-6.356;2023-09-19T03:02:25;10.25;;;2.65;;
35530;SDS011;21637;53.352;-6.356;2023-09-19T03:04:52;13.05;;;2.75;;
35530;SDS011;21637;53.352;-6.356;2023-09-19T03:07:18;8.18;;;2.92;;
35530;SDS011;21637;53.352;-6.356;2023-09-19T03:09:44;9.48;;;2.83;;
35530;SDS011;21637;53.352;-6.356;2023-09-19T03:12:10;12.60;;;2.90;;
35530;SDS011;21637;53.352;-6.356;2023-09-19T03:14:36;6.30;;;2.92;;
35530;SDS011;21637;53.352;-6.356;2023-09-19T03:17:02;10.13;;;2.85;;
35530;SDS011;21637;53.352;-6.356;2023-09-19T03:19:31;11.18;;;2.72;;
35530;SDS011;21637;53.352;-6.356;2023-09-19T03:21:58;6.53;;;2.58;;
35530;SDS011;21637;53.352;-6.356;2023-09-19T03:24:24;10.60;;;2.65;;
35530;SDS011;21637;53.352;-6.356;2023-09-19T03:26:51;8.10;;;2.65;;
35530;SDS011;21637;53.352;-6.356;2023-09-19T03:29:17;6.45;;;2.00;;
35530;SDS011;21637;53.352;-6.356;2023-09-19T03:31:43;7.05;;;1.95;;
35530;SDS011;21637;53.352;-6.356;2023-09-19T03:34:09;4.88;;;1.85;;
35530;SDS011;21637;53.352;-6.356;2023-09-19T03:36:35;4.50;;;2.03;;
35530;SDS011;21637;53.352;-6.356;2023-09-19T03:39:01;7.80;;;1.90;;
35530;SDS011;21637;53.352;-6.356;2023-09-19T03:41:30;4.95;;;2.05;;
35530;SDS011;21637;53.352;-6.356;2023-09-19T03:43:56;5.35;;;2.10;;
35530;SDS011;21637;53.352;-6.356;2023-09-19T03:46:22;8.88;;;2.22;;
35530;SDS011;21637;53.352;-6.356;2023-09-19T03:48:48;5.15;;;2.00;;
35530;SDS011;21637;53.352;-6.356;2023-09-19T03:51:13;7.80;;;2.15;;
35530;SDS011;21637;53.352;-6.356;2023-09-19T03:53:40;3.97;;;1.75;;
35530;SDS011;21637;53.352;-6.356;2023-09-19T03:56:06;8.55;;;2.10;;
35530;SDS011;21637;53.352;-6.356;2023-09-19T03:58:33;6.70;;;2.22;;
35530;SDS011;21637;53.352;-6.356;2023-09-19T04:01:03;7.30;;;1.98;;
35530;SDS011;21637;53.352;-6.356;2023-09-19T04:03:28;5.32;;;2.42;;
35530;SDS011;21637;53.352;-6.356;2023-09-19T04:06:00;7.10;;;2.17;;
35530;SDS011;21637;53.352;-6.356;2023-09-19T04:08:27;7.53;;;2.05;;
35530;SDS011;21637;53.352;-6.356;2023-09-19T04:10:53;6.20;;;2.30;;
35530;SDS011;21637;53.352;-6.356;2023-09-19T04:13:18;7.97;;;2.00;;
35530;SDS011;21637;53.352;-6.356;2023-09-19T04:15:44;6.05;;;2.58;;
35530;SDS011;21637;53.352;-6.356;2023-09-19T04:18:12;8.82;;;2.30;;
35530;SDS011;21637;53.352;-6.356;2023-09-19T04:20:37;4.90;;;1.80;;
35530;SDS011;21637;53.352;-6.356;2023-09-19T04:23:03;6.15;;;1.92;;
35530;SDS011;21637;53.352;-6.356;2023-09-19T04:25:30;6.43;;;1.83;;
35530;SDS011;21637;53.352;-6.356;2023-09-19T04:27:56;6.97;;;2.30;;
35530;SDS011;21637;53.352;-6.356;2023-09-19T04:30:22;5.82;;;1.98;;
35530;SDS011;21637;53.352;-6.356;2023-09-19T04:32:48;4.40;;;1.63;;
35530;SDS011;21637;53.352;-6.356;2023-09-19T04:35:15;4.85;;;1.77;;
35530;SDS011;21637;53.352;-6.356;2023-09-19T04:37:41;4.43;;;1.85;;
35530;SDS011;21637;53.352;-6.356;2023-09-19T04:40:07;4.32;;;1.55;;
35530;SDS011;21637;53.352;-6.356;2023-09-19T04:42:42;2.25;;;1.45;;
35530;SDS011;21637;53.352;-6.356;2023-09-19T04:45:09;3.25;;;1.65;;
35530;SDS011;21637;53.352;-6.356;2023-09-19T04:47:35;4.53;;;1.30;;
35530;SDS011;21637;53.352;-6.356;2023-09-19T04:50:04;3.42;;;1.70;;
35530;SDS011;21637;53.352;-6.356;2023-09-19T04:52:31;3.97;;;1.40;;
35530;SDS011;21637;53.352;-6.356;2023-09-19T04:54:57;3.40;;;1.27;;
35530;SDS011;21637;53.352;-6.356;2023-09-19T04:57:23;2.28;;;1.00;;
35530;SDS011;21637;53.352;-6.356;2023-09-19T04:59:50;2.80;;;1.00;;
35530;SDS011;21637;53.352;-6.356;2023-09-19T05:02:16;3.63;;;1.17;;
35530;SDS011;21637;53.352;-6.356;2023-09-19T05:04:42;1.33;;;1.10;;
35530;SDS011;21637;53.352;-6.356;2023-09-19T05:07:08;3.35;;;1.00;;
35530;SDS011;21637;53.352;-6.356;2023-09-19T05:09:35;3.25;;;1.10;;
35530;SDS011;21637;53.352;-6.356;2023-09-19T05:12:02;2.13;;;1.08;;
35530;SDS011;21637;53.352;-6.356;2023-09-19T05:14:28;5.78;;;1.33;;
35530;SDS011;21637;53.352;-6.356;2023-09-19T05:16:55;3.20;;;1.08;;
35530;SDS011;21637;53.352;-6.356;2023-09-19T05:19:20;4.97;;;1.00;;
35530;SDS011;21637;53.352;-6.356;2023-09-19T05:21:46;2.65;;;0.80;;
35530;SDS011;21637;53.352;-6.356;2023-09-19T05:24:12;3.55;;;0.90;;
35530;SDS011;21637;53.352;-6.356;2023-09-19T05:26:39;2.85;;;0.90;;
35530;SDS011;21637;53.352;-6.356;2023-09-19T05:29:06;1.65;;;0.88;;
35530;SDS011;21637;53.352;-6.356;2023-09-19T05:31:33;1.83;;;0.75;;
35530;SDS011;21637;53.352;-6.356;2023-09-19T05:34:01;5.65;;;0.98;;
35530;SDS011;21637;53.352;-6.356;2023-09-19T05:36:27;3.20;;;0.70;;
35530;SDS011;21637;53.352;-6.356;2023-09-19T05:38:54;4.22;;;0.90;;
35530;SDS011;21637;53.352;-6.356;2023-09-19T05:41:20;2.38;;;0.90;;
35530;SDS011;21637;53.352;-6.356;2023-09-19T05:43:48;3.58;;;0.77;;
35530;SDS011;21637;53.352;-6.356;2023-09-19T05:46:15;3.20;;;1.08;;
35530;SDS011;21637;53.352;-6.356;2023-09-19T05:48:41;0.95;;;0.63;;
35530;SDS011;21637;53.352;-6.356;2023-09-19T05:51:08;3.13;;;0.70;;
35530;SDS011;21637;53.352;-6.356;2023-09-19T05:53:35;2.28;;;0.47;;
35530;SDS011;21637;53.352;-6.356;2023-09-19T05:56:00;2.13;;;0.35;;
35530;SDS011;21637;53.352;-6.356;2023-09-19T05:58:26;1.30;;;0.40;;
35530;SDS011;21637;53.352;-6.356;2023-09-19T06:00:52;1.70;;;0.40;;
35530;SDS011;21637;53.352;-6.356;2023-09-19T06:03:18;1.23;;;0.60;;
35530;SDS011;21637;53.352;-6.356;2023-09-19T06:05:44;2.65;;;0.47;;
35530;SDS011;21637;53.352;-6.356;2023-09-19T06:08:11;2.75;;;0.45;;
35530;SDS011;21637;53.352;-6.356;2023-09-19T06:10:37;0.68;;;0.22;;
35530;SDS011;21637;53.352;-6.356;2023-09-19T06:13:03;1.63;;;0.50;;
35530;SDS011;21637;53.352;-6.356;2023-09-19T06:15:30;1.02;;;0.40;;
35530;SDS011;21637;53.352;-6.356;2023-09-19T06:17:58;0.32;;;0.32;;
35530;SDS011;21637;53.352;-6.356;2023-09-19T06:20:29;1.60;;;0.85;;
35530;SDS011;21637;53.352;-6.356;2023-09-19T06:22:56;1.55;;;0.35;;
35530;SDS011;21637;53.352;-6.356;2023-09-19T06:25:21;1.13;;;0.30;;
35530;SDS011;21637;53.352;-6.356;2023-09-19T06:27:48;0.55;;;0.40;;
35530;SDS011;21637;53.352;-6.356;2023-09-19T06:30:17;1.38;;;0.30;;
35530;SDS011;21637;53.352;-6.356;2023-09-19T06:32:43;0.93;;;0.20;;
35530;SDS011;21637;53.352;-6.356;2023-09-19T06:35:10;0.75;;;0.30;;
35530;SDS011;21637;53.352;-6.356;2023-09-19T06:37:37;0.13;;;0.13;;
35530;SDS011;21637;53.352;-6.356;2023-09-19T06:40:07;0.65;;;0.20;;
35530;SDS011;21637;53.352;-6.356;2023-09-19T06:42:42;0.85;;;0.30;;
35530;SDS011;21637;53.352;-6.356;2023-09-19T06:45:11;0.85;;;0.20;;
35530;SDS011;21637;53.352;-6.356;2023-09-19T06:47:38;0.95;;;0.10;;
35530;SDS011;21637;53.352;-6.356;2023-09-19T06:50:05;1.30;;;0.40;;
35530;SDS011;21637;53.352;-6.356;2023-09-19T06:52:34;2.20;;;0.30;;
35530;SDS011;21637;53.352;-6.356;2023-09-19T06:55:00;0.22;;;0.15;;
35530;SDS011;21637;53.352;-6.356;2023-09-19T06:57:28;0.70;;;0.40;;
35530;SDS011;21637;53.352;-6.356;2023-09-19T06:59:55;0.75;;;0.40;;
35530;SDS011;21637;53.352;-6.356;2023-09-19T07:02:21;0.47;;;0.28;;
35530;SDS011;21637;53.352;-6.356;2023-09-19T07:04:47;0.10;;;0.10;;
35530;SDS011;21637;53.352;-6.356;2023-09-19T07:07:13;0.32;;;0.20;;
35530;SDS011;21637;53.352;-6.356;2023-09-19T07:09:39;0.30;;;0.10;;
35530;SDS011;21637;53.352;-6.356;2023-09-19T07:12:05;1.40;;;0.20;;
35530;SDS011;21637;53.352;-6.356;2023-09-19T07:14:31;1.30;;;0.22;;
35530;SDS011;21637;53.352;-6.356;2023-09-19T07:16:57;0.25;;;0.20;;
35530;SDS011;21637;53.352;-6.356;2023-09-19T07:19:25;1.90;;;0.30;;
35530;SDS011;21637;53.352;-6.356;2023-09-19T07:21:53;1.38;;;0.50;;
35530;SDS011;21637;53.352;-6.356;2023-09-19T07:24:19;2.08;;;1.98;;
35530;SDS011;21637;53.352;-6.356;2023-09-19T07:26:47;1.70;;;1.60;;
35530;SDS011;21637;53.352;-6.356;2023-09-19T07:29:13;0.63;;;0.50;;
35530;SDS011;21637;53.352;-6.356;2023-09-19T07:31:39;0.38;;;0.30;;
35530;SDS011;21637;53.352;-6.356;2023-09-19T07:34:05;2.20;;;0.65;;
35530;SDS011;21637;53.352;-6.356;2023-09-19T07:36:33;0.30;;;0.13;;
35530;SDS011;21637;53.352;-6.356;2023-09-19T07:38:59;1.48;;;0.40;;
35530;SDS011;21637;53.352;-6.356;2023-09-19T07:41:25;0.32;;;0.20;;
35530;SDS011;21637;53.352;-6.356;2023-09-19T07:43:51;1.77;;;0.47;;
35530;SDS011;21637;53.352;-6.356;2023-09-19T07:46:17;1.13;;;0.40;;
35530;SDS011;21637;53.352;-6.356;2023-09-19T07:48:43;1.90;;;0.30;;
35530;SDS011;21637;53.352;-6.356;2023-09-19T07:51:13;0.82;;;0.20;;
35530;SDS011;21637;53.352;-6.356;2023-09-19T07:53:40;0.52;;;0.30;;
35530;SDS011;21637;53.352;-6.356;2023-09-19T07:56:07;0.68;;;0.30;;
35530;SDS011;21637;53.352;-6.356;2023-09-19T07:58:35;1.20;;;0.38;;
35530;SDS011;21637;53.352;-6.356;2023-09-19T08:01:07;1.08;;;0.50;;
35530;SDS011;21637;53.352;-6.356;2023-09-19T08:03:34;4.47;;;0.47;;
35530;SDS011;21637;53.352;-6.356;2023-09-19T08:06:02;2.08;;;0.22;;
35530;SDS011;21637;53.352;-6.356;2023-09-19T08:08:28;0.38;;;0.28;;
35530;SDS011;21637;53.352;-6.356;2023-09-19T08:10:54;1.77;;;0.25;;
35530;SDS011;21637;53.352;-6.356;2023-09-19T08:13:24;3.00;;;0.30;;
35530;SDS011;21637;53.352;-6.356;2023-09-19T08:15:51;1.05;;;0.40;;
35530;SDS011;21637;53.352;-6.356;2023-09-19T08:18:18;1.65;;;0.10;;
35530;SDS011;21637;53.352;-6.356;2023-09-19T08:20:53;1.15;;;0.47;;
35530;SDS011;21637;53.352;-6.356;2023-09-19T08:23:19;1.00;;;0.25;;
35530;SDS011;21637;53.352;-6.356;2023-09-19T08:25:47;0.32;;;0.30;;
35530;SDS011;21637;53.352;-6.356;2023-09-19T08:28:13;0.52;;;0.20;;
35530;SDS011;21637;53.352;-6.356;2023-09-19T08:30:44;1.10;;;0.40;;
35530;SDS011;21637;53.352;-6.356;2023-09-19T08:33:12;0.25;;;0.10;;
35530;SDS011;21637;53.352;-6.356;2023-09-19T08:35:40;3.60;;;0.40;;
35530;SDS011;21637;53.352;-6.356;2023-09-19T08:38:07;1.45;;;0.50;;
35530;SDS011;21637;53.352;-6.356;2023-09-19T08:40:37;0.40;;;0.28;;
35530;SDS011;21637;53.352;-6.356;2023-09-19T08:43:04;0.60;;;0.30;;
35530;SDS011;21637;53.352;-6.356;2023-09-19T08:45:32;0.85;;;0.43;;
35530;SDS011;21637;53.352;-6.356;2023-09-19T08:50:52;2.70;;;0.65;;
35530;SDS011;21637;53.352;-6.356;2023-09-19T08:58:50;0.52;;;0.20;;
35530;SDS011;21637;53.352;-6.356;2023-09-19T09:01:20;1.42;;;0.20;;
35530;SDS011;21637;53.352;-6.356;2023-09-19T09:03:51;2.10;;;0.40;;
35530;SDS011;21637;53.352;-6.356;2023-09-19T09:06:18;0.28;;;0.25;;
35530;SDS011;21637;53.352;-6.356;2023-09-19T09:08:50;1.88;;;0.28;;
35530;SDS011;21637;53.352;-6.356;2023-09-19T09:11:17;0.57;;;0.10;;
35530;SDS011;21637;53.352;-6.356;2023-09-19T09:13:43;2.05;;;0.20;;
35530;SDS011;21637;53.352;-6.356;2023-09-19T09:16:09;0.00;;;0.00;;
35530;SDS011;21637;53.352;-6.356;2023-09-19T09:18:35;0.43;;;0.30;;
35530;SDS011;21637;53.352;-6.356;2023-09-19T09:21:02;1.27;;;0.20;;
35530;SDS011;21637;53.352;-6.356;2023-09-19T09:23:29;0.20;;;0.13;;
35530;SDS011;21637;53.352;-6.356;2023-09-19T09:25:57;0.20;;;0.20;;
35530;SDS011;21637;53.352;-6.356;2023-09-19T09:28:27;0.32;;;0.10;;
35530;SDS011;21637;53.352;-6.356;2023-09-19T09:30:55;2.00;;;0.40;;
35530;SDS011;21637;53.352;-6.356;2023-09-19T09:33:23;1.85;;;0.43;;
35530;SDS011;21637;53.352;-6.356;2023-09-19T09:38:17;0.20;;;0.20;;
35530;SDS011;21637;53.352;-6.356;2023-09-19T09:40:51;5.97;;;0.93;;
35530;SDS011;21637;53.352;-6.356;2023-09-19T09:46:15;0.60;;;0.20;;
35530;SDS011;21637;53.352;-6.356;2023-09-19T09:51:40;0.20;;;0.20;;
35530;SDS011;21637;53.352;-6.356;2023-09-19T09:54:16;0.03;;;0.03;;
35530;SDS011;21637;53.352;-6.356;2023-09-19T09:56:56;0.13;;;0.13;;
35530;SDS011;21637;53.352;-6.356;2023-09-19T09:59:48;0.57;;;0.10;;
35530;SDS011;21637;53.352;-6.356;2023-09-19T10:02:16;0.57;;;0.10;;
35530;SDS011;21637;53.352;-6.356;2023-09-19T10:04:57;0.38;;;0.20;;
35530;SDS011;21637;53.352;-6.356;2023-09-19T10:07:39;1.00;;;0.10;;
35530;SDS011;21637;53.352;-6.356;2023-09-19T10:10:11;0.90;;;0.30;;
35530;SDS011;21637;53.352;-6.356;2023-09-19T10:12:49;1.20;;;0.17;;
35530;SDS011;21637;53.352;-6.356;2023-09-19T10:15:21;0.57;;;0.10;;
35530;SDS011;21637;53.352;-6.356;2023-09-19T10:17:51;1.45;;;0.20;;
35530;SDS011;21637;53.352;-6.356;2023-09-19T10:20:21;0.10;;;0.10;;
35530;SDS011;21637;53.352;-6.356;2023-09-19T10:22:49;0.03;;;0.03;;
35530;SDS011;21637;53.352;-6.356;2023-09-19T10:25:26;1.48;;;0.13;;
35530;SDS011;21637;53.352;-6.356;2023-09-19T10:28:00;2.45;;;0.40;;
35530;SDS011;21637;53.352;-6.356;2023-09-19T10:30:31;0.28;;;0.15;;
35530;SDS011;21637;53.352;-6.356;2023-09-19T10:33:02;0.30;;;0.13;;
35530;SDS011;21637;53.352;-6.356;2023-09-19T10:35:30;0.30;;;0.20;;
35530;SDS011;21637;53.352;-6.356;2023-09-19T10:38:00;0.22;;;0.10;;
35530;SDS011;21637;53.352;-6.356;2023-09-19T10:40:27;0.60;;;0.38;;
35530;SDS011;21637;53.352;-6.356;2023-09-19T10:43:03;1.17;;;0.17;;
35530;SDS011;21637;53.352;-6.356;2023-09-19T10:45:33;0.10;;;0.10;;
35530;SDS011;21637;53.352;-6.356;2023-09-19T10:48:00;0.38;;;0.10;;
35530;SDS011;21637;53.352;-6.356;2023-09-19T10:50:33;0.20;;;0.10;;
35530;SDS011;21637;53.352;-6.356;2023-09-19T10:53:06;0.52;;;0.30;;
35530;SDS011;21637;53.352;-6.356;2023-09-19T10:55:35;0.10;;;0.10;;
35530;SDS011;21637;53.352;-6.356;2023-09-19T10:58:02;0.10;;;0.10;;
35530;SDS011;21637;53.352;-6.356;2023-09-19T11:00:57;0.20;;;0.20;;
35530;SDS011;21637;53.352;-6.356;2023-09-19T11:03:37;0.40;;;0.28;;
35530;SDS011;21637;53.352;-6.356;2023-09-19T11:06:15;0.88;;;0.43;;
35530;SDS011;21637;53.352;-6.356;2023-09-19T11:08:53;0.38;;;0.10;;
35530;SDS011;21637;53.352;-6.356;2023-09-19T11:30:50;1.05;;;0.20;;
35530;SDS011;21637;53.352;-6.356;2023-09-19T11:33:23;1.55;;;0.30;;
35530;SDS011;21637;53.352;-6.356;2023-09-19T11:46:20;2.05;;;0.60;;
35530;SDS011;21637;53.352;-6.356;2023-09-19T11:48:50;0.50;;;0.28;;
35530;SDS011;21637;53.352;-6.356;2023-09-19T11:53:51;0.63;;;0.28;;
35530;SDS011;21637;53.352;-6.356;2023-09-19T11:56:25;1.90;;;0.32;;
35530;SDS011;21637;53.352;-6.356;2023-09-19T11:58:56;0.68;;;0.28;;
35530;SDS011;21637;53.352;-6.356;2023-09-19T12:03:55;0.53;;;0.20;;
35530;SDS011;21637;53.352;-6.356;2023-09-19T12:06:23;1.15;;;0.40;;
35530;SDS011;21637;53.352;-6.356;2023-09-19T12:08:49;1.92;;;0.32;;
35530;SDS011;21637;53.352;-6.356;2023-09-19T12:11:16;1.17;;;0.20;;
35530;SDS011;21637;53.352;-6.356;2023-09-19T12:13:46;0.73;;;0.40;;
35530;SDS011;21637;53.352;-6.356;2023-09-19T12:16:17;1.17;;;0.35;;
35530;SDS011;21637;53.352;-6.356;2023-09-19T12:18:48;1.05;;;0.40;;
35530;SDS011;21637;53.352;-6.356;2023-09-19T12:21:25;0.80;;;0.40;;
35530;SDS011;21637;53.352;-6.356;2023-09-19T12:24:13;0.20;;;0.20;;
35530;SDS011;21637;53.352;-6.356;2023-09-19T12:26:42;2.38;;;0.50;;
35530;SDS011;21637;53.352;-6.356;2023-09-19T12:29:12;0.68;;;0.30;;
35530;SDS011;21637;53.352;-6.356;2023-09-19T12:31:47;0.93;;;0.40;;
35530;SDS011;21637;53.352;-6.356;2023-09-19T12:34:31;1.65;;;0.30;;
35530;SDS011;21637;53.352;-6.356;2023-09-19T12:37:03;1.45;;;0.35;;
35530;SDS011;21637;53.352;-6.356;2023-09-19T12:39:36;1.95;;;0.30;;
35530;SDS011;21637;53.352;-6.356;2023-09-19T12:42:09;1.17;;;0.40;;
35530;SDS011;21637;53.352;-6.356;2023-09-19T12:44:40;0.50;;;0.28;;
35530;SDS011;21637;53.352;-6.356;2023-09-19T12:47:11;1.20;;;0.38;;
35530;SDS011;21637;53.352;-6.356;2023-09-19T12:52:57;1.13;;;0.57;;
35530;SDS011;21637;53.352;-6.356;2023-09-19T12:55:26;1.55;;;0.50;;
35530;SDS011;21637;53.352;-6.356;2023-09-19T13:03:13;1.67;;;0.50;;
35530;SDS011;21637;53.352;-6.356;2023-09-19T13:06:03;1.02;;;0.50;;
35530;SDS011;21637;53.352;-6.356;2023-09-19T13:08:30;3.08;;;0.73;;
35530;SDS011;21637;53.352;-6.356;2023-09-19T13:11:03;1.20;;;0.70;;
35530;SDS011;21637;53.352;-6.356;2023-09-19T13:13:42;3.50;;;0.50;;
35530;SDS011;21637;53.352;-6.356;2023-09-19T13:16:09;1.73;;;0.60;;
35530;SDS011;21637;53.352;-6.356;2023-09-19T13:18:46;1.30;;;0.60;;
35530;SDS011;21637;53.352;-6.356;2023-09-19T13:21:16;1.27;;;0.70;;
35530;SDS011;21637;53.352;-6.356;2023-09-19T13:23:52;2.58;;;0.43;;
35530;SDS011;21637;53.352;-6.356;2023-09-19T13:26:24;0.43;;;0.43;;
35530;SDS011;21637;53.352;-6.356;2023-09-19T13:28:53;1.95;;;0.60;;
35530;SDS011;21637;53.352;-6.356;2023-09-19T13:31:19;0.73;;;0.50;;
35530;SDS011;21637;53.352;-6.356;2023-09-19T13:33:47;0.60;;;0.45;;
35530;SDS011;21637;53.352;-6.356;2023-09-19T13:36:13;1.23;;;0.57;;
35530;SDS011;21637;53.352;-6.356;2023-09-19T13:38:40;1.38;;;0.38;;
35530;SDS011;21637;53.352;-6.356;2023-09-19T13:41:09;1.35;;;0.40;;
35530;SDS011;21637;53.352;-6.356;2023-09-19T13:43:36;1.40;;;0.45;;
35530;SDS011;21637;53.352;-6.356;2023-09-19T13:46:02;2.25;;;0.55;;
35530;SDS011;21637;53.352;-6.356;2023-09-19T13:48:28;2.20;;;0.45;;
35530;SDS011;21637;53.352;-6.356;2023-09-19T13:50:54;2.15;;;0.60;;
35530;SDS011;21637;53.352;-6.356;2023-09-19T13:53:21;2.35;;;0.80;;
35530;SDS011;21637;53.352;-6.356;2023-09-19T13:55:47;0.95;;;0.60;;
35530;SDS011;21637;53.352;-6.356;2023-09-19T13:58:14;2.95;;;0.85;;
35530;SDS011;21637;53.352;-6.356;2023-09-19T14:00:39;2.88;;;0.82;;
35530;SDS011;21637;53.352;-6.356;2023-09-19T14:03:05;3.92;;;1.30;;
35530;SDS011;21637;53.352;-6.356;2023-09-19T14:05:31;2.22;;;0.90;;
35530;SDS011;21637;53.352;-6.356;2023-09-19T14:07:57;2.38;;;1.00;;
35530;SDS011;21637;53.352;-6.356;2023-09-19T14:10:24;2.55;;;0.80;;
35530;SDS011;21637;53.352;-6.356;2023-09-19T14:12:52;0.95;;;0.70;;
35530;SDS011;21637;53.352;-6.356;2023-09-19T14:15:18;1.27;;;0.90;;
35530;SDS011;21637;53.352;-6.356;2023-09-19T14:17:44;2.63;;;0.70;;
35530;SDS011;21637;53.352;-6.356;2023-09-19T14:20:11;1.55;;;0.77;;
35530;SDS011;21637;53.352;-6.356;2023-09-19T14:22:36;4.28;;;1.10;;
35530;SDS011;21637;53.352;-6.356;2023-09-19T14:25:03;2.80;;;0.70;;
35530;SDS011;21637;53.352;-6.356;2023-09-19T14:27:29;2.25;;;0.90;;
35530;SDS011;21637;53.352;-6.356;2023-09-19T14:29:55;4.03;;;1.02;;
35530;SDS011;21637;53.352;-6.356;2023-09-19T14:32:22;4.45;;;1.20;;
35530;SDS011;21637;53.352;-6.356;2023-09-19T14:34:48;3.35;;;1.05;;
35530;SDS011;21637;53.352;-6.356;2023-09-19T14:37:14;6.25;;;1.52;;
35530;SDS011;21637;53.352;-6.356;2023-09-19T14:39:41;7.15;;;1.67;;
35530;SDS011;21637;53.352;-6.356;2023-09-19T14:42:10;7.38;;;2.05;;
35530;SDS011;21637;53.352;-6.356;2023-09-19T14:44:36;8.02;;;2.42;;
35530;SDS011;21637;53.352;-6.356;2023-09-19T14:47:05;8.70;;;2.25;;
35530;SDS011;21637;53.352;-6.356;2023-09-19T14:49:35;9.95;;;2.45;;
35530;SDS011;21637;53.352;-6.356;2023-09-19T14:52:05;11.70;;;2.47;;
35530;SDS011;21637;53.352;-6.356;2023-09-19T14:54:34;12.10;;;3.10;;
35530;SDS011;21637;53.352;-6.356;2023-09-19T14:57:00;12.88;;;3.10;;
35530;SDS011;21637;53.352;-6.356;2023-09-19T14:59:33;12.20;;;3.20;;
35530;SDS011;21637;53.352;-6.356;2023-09-19T15:02:05;12.82;;;3.40;;
35530;SDS011;21637;53.352;-6.356;2023-09-19T15:04:32;13.27;;;3.33;;
35530;SDS011;21637;53.352;-6.356;2023-09-19T15:06:58;11.70;;;3.70;;
35530;SDS011;21637;53.352;-6.356;2023-09-19T15:09:24;17.40;;;3.63;;
35530;SDS011;21637;53.352;-6.356;2023-09-19T15:11:53;14.25;;;4.57;;
35530;SDS011;21637;53.352;-6.356;2023-09-19T15:14:20;19.10;;;5.78;;
35530;SDS011;21637;53.352;-6.356;2023-09-19T15:16:47;22.42;;;8.70;;
35530;SDS011;21637;53.352;-6.356;2023-09-19T15:19:13;20.25;;;8.35;;
35530;SDS011;21637;53.352;-6.356;2023-09-19T15:21:40;19.48;;;7.50;;
35530;SDS011;21637;53.352;-6.356;2023-09-19T15:24:06;15.85;;;6.15;;
35530;SDS011;21637;53.352;-6.356;2023-09-19T15:26:35;16.50;;;6.70;;
35530;SDS011;21637;53.352;-6.356;2023-09-19T15:29:07;15.25;;;6.53;;
35530;SDS011;21637;53.352;-6.356;2023-09-19T15:31:34;9.65;;;4.18;;
35530;SDS011;21637;53.352;-6.356;2023-09-19T15:34:03;13.25;;;3.70;;
35530;SDS011;21637;53.352;-6.356;2023-09-19T15:36:31;12.45;;;3.33;;
35530;SDS011;21637;53.352;-6.356;2023-09-19T15:41:22;14.93;;;5.60;;
35530;SDS011;21637;53.352;-6.356;2023-09-19T15:43:53;13.00;;;5.85;;
35530;SDS011;21637;53.352;-6.356;2023-09-19T15:46:20;12.68;;;5.10;;
35530;SDS011;21637;53.352;-6.356;2023-09-19T15:48:46;16.15;;;7.35;;
35530;SDS011;21637;53.352;-6.356;2023-09-19T15:51:12;17.40;;;7.03;;
35530;SDS011;21637;53.352;-6.356;2023-09-19T15:53:46;16.77;;;5.97;;
35530;SDS011;21637;53.352;-6.356;2023-09-19T15:56:13;11.70;;;4.10;;
35530;SDS011;21637;53.352;-6.356;2023-09-19T15:58:46;10.07;;;3.08;;
35530;SDS011;21637;53.352;-6.356;2023-09-19T16:01:13;7.47;;;3.17;;